Time;durP1;ratioP1;P1;durP2;ratioP2;P2;SDS_P1;SDS_P2;PMS_P1;PMS_P2;Temp;Humidity;BMP_temperature;BMP_pressure;BME280_temperature;BME280_humidity;BME280_pressure;Samples;Min_cycle;Max_cycle;Signal;HPM_P1;HPM_P2
2024/01/28 00:01:18;;;;;;;44.65;42.35;;;;;;;5.75;65.67;103165.91;5067766;28;20036;-75
2024/01/28 00:03:43;;;;;;;45.47;42.38;;;;;;;5.74;65.62;103166.91;5070906;28;20111;-76
2024/01/28 00:06:09;;;;;;;41.95;39.85;;;;;;;5.72;65.70;103159.03;5068321;28;20047;-77
2024/01/28 00:08:34;;;;;;;38.70;36.70;;;;;;;5.71;65.62;103159.16;5065837;28;20036;-77
2024/01/28 00:11:00;;;;;;;41.03;39.03;;;;;;;5.71;65.65;103160.00;5067692;28;20049;-74
2024/01/28 00:13:25;;;;;;;43.58;41.47;;;;;;;5.70;65.76;103155.63;5065274;28;20051;-77
2024/01/28 00:15:54;;;;;;;42.15;39.85;;;;;;;5.70;65.69;103162.84;5069225;28;20177;-77
2024/01/28 00:18:20;;;;;;;40.30;38.30;;;;;;;5.68;65.98;103154.94;5067218;28;20024;-76
2024/01/28 00:20:47;;;;;;;44.28;42.00;;;;;;;5.68;65.95;103157.63;5066894;28;20038;-76
2024/01/28 00:23:12;;;;;;;46.83;44.55;;;;;;;5.67;65.83;103155.94;5072344;28;20025;-76
2024/01/28 00:25:37;;;;;;;41.42;39.03;;;;;;;5.66;65.62;103153.41;5059178;28;20039;-77
2024/01/28 00:28:04;;;;;;;42.80;40.70;;;;;;;5.65;65.65;103152.56;5053339;28;20072;-76
2024/01/28 00:30:32;;;;;;;41.42;39.40;;;;;;;5.65;65.73;103147.19;5082767;28;20037;-75
2024/01/28 00:32:58;;;;;;;38.60;36.40;;;;;;;5.64;65.62;103145.50;5071708;28;20111;-74
2024/01/28 00:35:23;;;;;;;46.35;44.10;;;;;;;5.63;65.83;103146.50;5069548;28;20028;-76
2024/01/28 00:37:48;;;;;;;42.67;40.47;;;;;;;5.62;65.66;103147.50;5069802;28;20058;-76
2024/01/28 00:40:14;;;;;;;45.08;42.78;;;;;;;5.62;65.58;103144.84;5067999;28;20086;-76
2024/01/28 00:42:39;;;;;;;37.33;35.42;;;;;;;5.61;65.66;103143.97;5086789;28;20119;-73
2024/01/28 00:45:05;;;;;;;40.58;38.58;;;;;;;5.60;65.43;103139.59;5062197;28;20089;-76
2024/01/28 00:47:31;;;;;;;43.92;41.78;;;;;;;5.60;65.62;103139.59;5063577;28;20481;-76
2024/01/28 00:49:57;;;;;;;44.72;42.35;;;;;;;5.59;65.80;103131.69;5065754;28;20035;-76
2024/01/28 00:52:22;;;;;;;44.90;42.75;;;;;;;5.59;65.93;103134.38;5052055;28;20477;-75
2024/01/28 00:54:47;;;;;;;43.40;41.10;;;;;;;5.57;65.63;103123.81;5056032;28;20104;-76
2024/01/28 00:57:13;;;;;;;43.05;40.65;;;;;;;5.57;65.79;103126.50;5066998;28;20102;-75
2024/01/28 00:59:38;;;;;;;44.72;42.53;;;;;;;5.57;65.62;103123.00;5061637;28;20033;-75
2024/01/28 01:02:04;;;;;;;43.00;40.75;;;;;;;5.55;65.75;103120.44;5062473;28;20036;-75
2024/01/28 01:04:30;;;;;;;38.60;36.72;;;;;;;5.55;65.54;103116.94;5053001;28;20040;-76
2024/01/28 01:06:55;;;;;;;43.85;41.55;;;;;;;5.54;65.57;103109.88;5056528;28;20120;-76
2024/01/28 01:09:20;;;;;;;41.63;39.63;;;;;;;5.53;65.53;103110.88;5062294;28;20091;-77
2024/01/28 01:11:47;;;;;;;38.50;36.53;;;;;;;5.52;65.80;103118.06;5067139;28;20088;-76
2024/01/28 01:14:12;;;;;;;42.92;40.83;;;;;;;5.51;65.68;103112.84;5051598;28;20033;-76
2024/01/28 01:16:38;;;;;;;44.38;41.97;;;;;;;5.51;65.52;103107.50;5053225;28;20064;-75
2024/01/28 01:19:03;;;;;;;40.90;38.80;;;;;;;5.51;65.51;103102.13;5053727;28;20389;-76
2024/01/28 01:21:28;;;;;;;45.58;43.42;;;;;;;5.49;65.64;103094.22;5071193;28;20439;-76
2024/01/28 01:23:54;;;;;;;43.55;41.28;;;;;;;5.48;65.70;103091.72;5066299;28;20037;-76
2024/01/28 01:26:19;;;;;;;42.92;40.70;;;;;;;5.47;65.63;103093.56;5066499;28;20036;-74
2024/01/28 01:28:44;;;;;;;41.38;39.38;;;;;;;5.46;65.73;103091.03;5069551;28;20114;-74
2024/01/28 01:31:10;;;;;;;40.38;38.47;;;;;;;5.45;65.74;103087.50;5066823;28;20428;-74
2024/01/28 01:33:35;;;;;;;45.75;42.83;;;;;;;5.44;65.58;103096.53;5055616;28;20440;-74
2024/01/28 01:36:01;;;;;;;40.97;38.88;;;;;;;5.43;65.80;103100.22;5058237;28;20092;-74
2024/01/28 01:38:26;;;;;;;40.80;38.80;;;;;;;5.43;65.81;103102.88;5055332;28;20056;-73
2024/01/28 01:40:52;;;;;;;42.38;39.53;;;;;;;5.41;65.62;103103.03;5054406;28;20507;-74
2024/01/28 01:43:17;;;;;;;42.15;40.08;;;;;;;5.40;65.51;103106.72;5062939;28;20044;-74
2024/01/28 01:45:43;;;;;;;39.70;37.80;;;;;;;5.39;65.75;103102.34;5063306;28;20032;-73
2024/01/28 01:48:11;;;;;;;41.35;39.05;;;;;;;5.39;65.69;103107.72;5070887;28;20029;-74
2024/01/28 01:50:38;;;;;;;41.65;39.60;;;;;;;5.39;65.57;103098.81;5069795;28;20040;-73
2024/01/28 01:53:05;;;;;;;39.25;37.20;;;;;;;5.38;65.59;103092.59;5073405;28;20477;-73
2024/01/28 01:55:34;;;;;;;42.60;39.30;;;;;;;5.35;65.45;103086.72;5074648;28;20028;-73
2024/01/28 01:58:00;;;;;;;;;;;;;;;5.35;65.56;103090.25;5071379;28;20039;-73
2024/01/28 02:00:25;;;;;;;39.58;37.67;;;;;;;5.33;65.74;103088.69;5071293;28;19925;-73
2024/01/28 02:02:50;;;;;;;39.10;37.20;;;;;;;5.32;65.46;103092.38;5074407;28;20427;-74
2024/01/28 02:05:16;;;;;;;37.75;35.92;;;;;;;5.31;65.32;103077.28;5074412;28;20071;-75
2024/01/28 02:07:41;;;;;;;40.83;38.83;;;;;;;5.30;65.60;103071.09;5072889;28;20040;-75
2024/01/28 02:10:09;;;;;;;41.83;39.63;;;;;;;5.32;65.51;103065.59;5073193;28;20484;-75
2024/01/28 02:12:35;;;;;;;38.33;36.53;;;;;;;5.30;65.56;103064.91;5064214;28;20504;-73
2024/01/28 02:15:11;;;;;;;35.72;33.90;;;;;;;5.30;65.46;103051.50;5074284;28;20040;-75
2024/01/28 02:17:37;;;;;;;41.00;39.05;;;;;;;5.29;65.58;103050.66;5071159;28;20021;-75
2024/01/28 02:20:03;;;;;;;40.55;38.45;;;;;;;5.28;65.56;103054.31;5066305;28;20520;-75
2024/01/28 02:22:29;;;;;;;38.97;37.15;;;;;;;5.28;65.44;103050.78;5074250;28;20029;-74
2024/01/28 02:24:55;;;;;;;38.35;36.47;;;;;;;5.27;65.48;103051.81;5072552;28;20033;-75
2024/01/28 02:27:20;;;;;;;39.08;37.03;;;;;;;5.27;65.66;103054.47;5072107;28;20041;-74
2024/01/28 02:29:46;;;;;;;41.78;39.70;;;;;;;5.26;65.46;103052.78;5062390;28;20123;-75
2024/01/28 02:32:15;;;;;;;40.25;38.15;;;;;;;5.26;65.37;103050.09;5073610;28;20044;-75
2024/01/28 02:34:40;;;;;;;41.63;39.53;;;;;;;5.25;65.32;103051.09;5074231;28;20111;-75
2024/01/28 02:37:06;;;;;;;43.55;41.30;;;;;;;5.24;65.61;103046.72;5073741;28;20648;-74
2024/01/28 02:39:31;;;;;;;38.92;36.97;;;;;;;5.23;65.36;103050.41;5071887;28;20025;-75
2024/01/28 02:41:56;;;;;;;39.95;38.05;;;;;;;5.21;65.56;103051.38;5072621;28;20036;-75
2024/01/28 02:44:22;;;;;;;39.83;37.95;;;;;;;5.21;65.32;103054.06;5072372;28;20112;-75
2024/01/28 02:46:47;;;;;;;43.58;41.55;;;;;;;5.20;65.45;103048.88;5066106;28;20464;-75
2024/01/28 02:49:13;;;;;;;40.15;38.15;;;;;;;5.19;65.30;103045.34;5055916;28;20041;-73
2024/01/28 02:51:38;;;;;;;37.38;35.58;;;;;;;5.19;65.31;103049.84;5054552;28;20048;-75
2024/01/28 02:54:03;;;;;;;46.78;44.47;;;;;;;5.17;65.23;103039.28;5071703;28;20025;-75
2024/01/28 02:56:29;;;;;;;41.25;38.63;;;;;;;5.16;65.64;103040.28;5073942;28;20454;-74
2024/01/28 02:58:54;;;;;;;41.33;39.30;;;;;;;5.15;65.23;103043.97;5073901;28;20040;-74
2024/01/28 03:01:20;;;;;;;39.95;38.00;;;;;;;5.15;65.42;103041.28;5050235;28;20033;-74
2024/01/28 03:03:46;;;;;;;39.00;37.10;;;;;;;5.14;65.32;103039.59;5060031;28;20040;-74
2024/01/28 03:06:11;;;;;;;43.63;41.42;;;;;;;5.14;65.37;103044.09;5055223;28;20115;-74
2024/01/28 03:08:36;;;;;;;40.58;38.58;;;;;;;5.13;65.20;103037.06;5070355;28;20037;-74
2024/01/28 03:11:02;;;;;;;39.28;37.17;;;;;;;5.12;65.31;103044.25;5062320;28;20043;-74
2024/01/28 03:13:27;;;;;;;39.08;37.22;;;;;;;5.11;65.28;103034.53;5068734;28;20025;-74
2024/01/28 03:15:56;;;;;;;36.05;34.30;;;;;;;5.10;65.28;103024.81;5065666;28;20086;-75
2024/01/28 03:18:22;;;;;;;40.08;37.92;;;;;;;5.10;65.13;103019.44;5053686;28;20280;-74
2024/01/28 03:20:47;;;;;;;40.78;38.80;;;;;;;5.07;65.37;103019.75;5083865;28;20044;-74
2024/01/28 03:23:14;;;;;;;40.92;38.70;;;;;;;5.08;65.34;103015.25;5068560;28;20029;-76
2024/01/28 03:25:39;;;;;;;43.13;40.42;;;;;;;5.07;65.48;103005.53;5053935;28;20039;-74
2024/01/28 03:28:06;;;;;;;40.85;38.90;;;;;;;5.07;65.25;103000.16;5072947;28;20028;-73
2024/01/28 03:30:31;;;;;;;38.92;37.08;;;;;;;5.05;65.23;102988.75;5073298;28;20068;-74
2024/01/28 03:32:58;;;;;;;39.45;37.63;;;;;;;5.03;65.18;102980.88;5062125;28;20067;-73
2024/01/28 03:35:24;;;;;;;39.40;37.50;;;;;;;5.03;65.18;102980.03;5070228;28;20177;-74
2024/01/28 03:37:50;;;;;;;37.28;35.25;;;;;;;5.02;65.18;102976.50;5060953;28;20071;-75
2024/01/28 03:40:16;;;;;;;40.70;38.47;;;;;;;5.01;65.17;102982.84;5072584;28;20386;-73
2024/01/28 03:42:41;;;;;;;37.00;35.20;;;;;;;5.02;65.12;102997.09;5068011;28;20115;-74
2024/01/28 03:45:09;;;;;;;38.50;36.67;;;;;;;5.00;65.40;102999.91;5060611;28;20437;-75
2024/01/28 03:47:35;;;;;;;37.55;35.67;;;;;;;4.99;65.27;103001.75;5084408;28;20408;-75
2024/01/28 03:50:01;;;;;;;40.00;38.05;;;;;;;4.98;65.46;103001.91;5071649;28;20032;-74
2024/01/28 03:52:26;;;;;;;40.50;38.50;;;;;;;4.98;65.32;102996.53;5064028;28;20060;-74
2024/01/28 03:54:52;;;;;;;42.90;40.70;;;;;;;4.97;65.33;103000.22;5052669;28;20489;-74
2024/01/28 03:57:17;;;;;;;42.40;40.17;;;;;;;4.96;65.12;102998.53;5063478;28;20029;-74
2024/01/28 03:59:43;;;;;;;39.90;37.60;;;;;;;4.96;65.24;102991.34;5068212;28;20032;-74
2024/01/28 04:02:08;;;;;;;46.08;43.70;;;;;;;4.96;65.34;102987.81;5069711;28;20020;-74
2024/01/28 04:04:34;;;;;;;37.45;35.53;;;;;;;4.96;65.21;102998.53;5049488;28;20469;-74
2024/01/28 04:06:59;;;;;;;41.17;38.88;;;;;;;4.95;65.31;102989.66;5069986;28;20028;-73
2024/01/28 04:09:25;;;;;;;37.08;35.17;;;;;;;4.94;65.26;102987.16;5054600;28;20033;-74
2024/01/28 04:11:50;;;;;;;36.97;35.28;;;;;;;4.93;65.42;102993.47;5066829;28;20508;-75
2024/01/28 04:14:15;;;;;;;41.45;39.15;;;;;;;4.92;65.37;102976.56;5053355;28;20044;-74
2024/01/28 04:16:41;;;;;;;41.55;39.60;;;;;;;4.92;65.09;102981.94;5065266;28;20028;-75
2024/01/28 04:19:06;;;;;;;39.20;37.08;;;;;;;4.90;64.86;102981.22;5071280;28;20032;-74
2024/01/28 04:21:32;;;;;;;34.97;33.30;;;;;;;4.91;65.13;102979.38;5069918;28;20472;-74
2024/01/28 04:23:58;;;;;;;40.08;38.17;;;;;;;4.88;65.39;102971.66;5070124;28;20035;-74
2024/01/28 04:26:24;;;;;;;35.85;33.95;;;;;;;4.86;65.33;102971.78;5071639;28;20388;-73
2024/01/28 04:28:49;;;;;;;35.85;34.15;;;;;;;4.86;65.35;102968.28;5072190;28;20436;-75
2024/01/28 04:31:16;;;;;;;36.05;34.25;;;;;;;4.86;64.92;102960.25;5066465;28;20568;-75
2024/01/28 04:33:41;;;;;;;41.08;38.83;;;;;;;4.85;65.44;102962.09;5071583;28;20499;-74
2024/01/28 04:36:07;;;;;;;37.88;36.08;;;;;;;4.83;65.28;102958.72;5072143;28;20033;-74
2024/01/28 04:38:34;;;;;;;37.83;36.05;;;;;;;4.81;65.29;102963.38;5057495;28;20061;-73
2024/01/28 04:41:00;;;;;;;36.10;34.35;;;;;;;4.82;65.14;102972.28;5065566;28;20461;-74
2024/01/28 04:43:26;;;;;;;41.67;39.47;;;;;;;4.80;65.38;102966.22;5056052;28;20043;-74
2024/01/28 04:45:51;;;;;;;40.72;38.58;;;;;;;4.78;65.27;102969.03;5071194;28;20044;-73
2024/01/28 04:48:18;;;;;;;37.05;35.15;;;;;;;4.78;65.33;102958.31;5060034;28;20040;-74
2024/01/28 04:50:44;;;;;;;41.17;39.08;;;;;;;4.77;65.11;102959.31;5060122;28;20032;-74
2024/01/28 04:53:09;;;;;;;39.55;37.65;;;;;;;4.75;65.32;102967.50;5070281;28;20025;-74
2024/01/28 04:55:35;;;;;;;38.10;36.33;;;;;;;4.76;65.38;102968.34;5059609;28;20037;-73
2024/01/28 04:58:00;;;;;;;39.08;37.25;;;;;;;4.76;65.16;102965.66;5069813;28;20067;-74
2024/01/28 05:00:26;;;;;;;36.28;34.38;;;;;;;4.75;65.04;102959.47;5067546;28;20032;-74
2024/01/28 05:02:55;;;;;;;38.45;36.55;;;;;;;4.74;65.14;102943.56;5053407;28;20056;-73
2024/01/28 05:05:20;;;;;;;;;;;;;;;4.72;65.40;102942.88;5064552;28;20109;-72
2024/01/28 05:07:45;;;;;;;34.95;33.22;;;;;;;4.70;65.13;102944.84;5053093;28;20003;-74
2024/01/28 05:10:12;;;;;;;36.90;35.10;;;;;;;4.69;65.24;102944.00;5067230;28;20473;-74
2024/01/28 05:12:38;;;;;;;37.85;36.05;;;;;;;4.69;65.09;102940.50;5071311;28;20135;-72
2024/01/28 05:15:04;;;;;;;35.25;33.55;;;;;;;4.67;65.13;102932.59;5061441;28;20565;-72
2024/01/28 05:17:29;;;;;;;36.40;34.50;;;;;;;4.67;64.97;102929.94;5050531;28;20029;-72
2024/01/28 05:19:55;;;;;;;37.45;35.67;;;;;;;4.66;65.42;102928.25;5068801;28;20055;-72
2024/01/28 05:22:22;;;;;;;39.92;37.88;;;;;;;4.65;65.01;102918.53;5070076;28;20036;-72
2024/01/28 05:24:49;;;;;;;38.75;36.75;;;;;;;4.64;65.02;102919.53;5074591;28;20029;-73
2024/01/28 05:27:16;;;;;;;38.85;36.95;;;;;;;4.64;64.90;102918.69;5072238;28;20098;-72
2024/01/28 05:29:41;;;;;;;38.28;36.47;;;;;;;4.64;65.28;102914.19;5075606;28;20044;-72
2024/01/28 05:32:06;;;;;;;35.50;33.80;;;;;;;4.64;65.22;102919.53;5075469;28;20036;-72
2024/01/28 05:34:33;;;;;;;38.10;35.88;;;;;;;4.63;65.13;102912.47;5075033;28;20473;-75
2024/01/28 05:36:58;;;;;;;40.42;38.33;;;;;;;4.62;65.21;102899.25;5070039;28;20440;-72
2024/01/28 05:39:23;;;;;;;41.00;38.55;;;;;;;4.62;65.26;102901.94;5058914;28;20132;-72
2024/01/28 05:41:49;;;;;;;38.38;36.58;;;;;;;4.61;65.18;102893.06;5069279;28;20037;-72
2024/01/28 05:44:14;;;;;;;40.97;38.97;;;;;;;4.60;65.01;102894.03;5072933;28;20283;-72
2024/01/28 05:46:39;;;;;;;34.13;32.47;;;;;;;4.58;65.11;102888.00;5056004;28;20046;-73
2024/01/28 05:49:05;;;;;;;39.50;37.60;;;;;;;4.58;65.22;102888.00;5072136;28;20036;-72
2024/01/28 05:51:32;;;;;;;35.53;33.70;;;;;;;4.57;65.18;102891.66;5070063;28;20033;-72
2024/01/28 05:53:58;;;;;;;34.85;33.20;;;;;;;4.55;65.28;102891.81;5048341;28;20530;-72
2024/01/28 05:56:23;;;;;;;36.58;34.58;;;;;;;4.54;65.34;102889.31;5074793;28;20024;-73
2024/01/28 05:58:49;;;;;;;36.92;34.70;;;;;;;4.54;64.94;102887.47;5073042;28;20037;-73
2024/01/28 06:01:14;;;;;;;40.20;38.20;;;;;;;4.54;65.19;102884.78;5068931;28;20038;-73
2024/01/28 06:03:41;;;;;;;36.95;35.15;;;;;;;4.53;65.37;102884.91;5062901;28;20072;-73
2024/01/28 06:06:07;;;;;;;40.67;38.78;;;;;;;4.53;65.25;102882.25;5063086;28;20582;-73
2024/01/28 06:08:33;;;;;;;45.25;42.65;;;;;;;4.52;65.35;102884.09;5073372;28;20037;-73
2024/01/28 06:10:58;;;;;;;36.20;34.50;;;;;;;4.51;65.38;102874.38;5072008;28;20094;-72
2024/01/28 06:13:24;;;;;;;38.15;36.28;;;;;;;4.51;65.03;102873.50;5074342;28;20476;-73
2024/01/28 06:15:52;;;;;;;36.60;34.83;;;;;;;4.50;65.37;102874.53;5074278;28;20033;-73
2024/01/28 06:18:19;;;;;;;35.67;33.97;;;;;;;4.49;65.14;102871.00;5065477;28;20040;-73
2024/01/28 06:20:45;;;;;;;37.90;36.08;;;;;;;4.48;65.17;102869.31;5061510;28;20028;-73
2024/01/28 06:23:10;;;;;;;38.63;36.67;;;;;;;4.47;65.02;102866.81;5074531;28;20028;-73
2024/01/28 06:25:36;;;;;;;35.92;33.97;;;;;;;4.48;65.32;102876.50;5073778;28;20393;-73
2024/01/28 06:28:02;;;;;;;39.13;37.22;;;;;;;4.47;65.16;102864.13;5068022;28;20029;-73
2024/01/28 06:30:29;;;;;;;37.35;35.40;;;;;;;4.45;65.10;102861.59;5069312;28;20040;-73
2024/01/28 06:32:54;;;;;;;35.50;33.80;;;;;;;4.45;65.05;102866.09;5062353;28;20111;-72
2024/01/28 06:35:20;;;;;;;33.67;32.05;;;;;;;4.45;65.39;102866.09;5073589;28;20032;-75
2024/01/28 06:37:45;;;;;;;36.83;35.08;;;;;;;4.44;65.19;102870.63;5072226;28;20115;-73
2024/01/28 06:40:11;;;;;;;38.28;36.22;;;;;;;4.44;64.94;102869.78;5063409;28;20066;-73
2024/01/28 06:42:36;;;;;;;36.03;34.13;;;;;;;4.42;65.15;102869.91;5073408;28;20047;-73
2024/01/28 06:45:01;;;;;;;33.65;32.05;;;;;;;4.42;65.30;102869.91;5073983;28;20040;-73
2024/01/28 06:47:27;;;;;;;36.67;34.92;;;;;;;4.40;65.36;102868.38;5071493;28;20040;-73
2024/01/28 06:49:52;;;;;;;35.95;34.10;;;;;;;4.39;64.92;102864.88;5066564;28;20072;-72
2024/01/28 06:52:18;;;;;;;37.90;36.05;;;;;;;4.39;64.93;102872.06;5069379;28;20037;-72
2024/01/28 06:54:44;;;;;;;35.65;33.45;;;;;;;4.38;65.19;102873.88;5070708;28;20044;-72
2024/01/28 06:57:09;;;;;;;36.40;34.63;;;;;;;4.39;65.22;102864.03;5073504;28;20039;-72
2024/01/28 06:59:35;;;;;;;42.58;40.20;;;;;;;4.38;64.96;102862.34;5068204;28;20037;-72
2024/01/28 07:02:01;;;;;;;36.40;34.30;;;;;;;4.37;64.92;102861.50;5066612;28;20052;-72
2024/01/28 07:04:26;;;;;;;36.97;35.22;;;;;;;4.37;64.99;102869.53;5073842;28;20028;-74
2024/01/28 07:06:52;;;;;;;36.35;34.55;;;;;;;4.36;65.14;102864.31;5054854;28;20064;-72
2024/01/28 07:09:18;;;;;;;36.40;34.60;;;;;;;4.34;64.99;102859.13;5070438;28;20028;-72
2024/01/28 07:11:44;;;;;;;37.83;35.88;;;;;;;4.34;65.09;102859.13;5071621;28;20098;-72
2024/01/28 07:14:10;;;;;;;37.92;36.03;;;;;;;4.33;65.02;102857.44;5066073;28;20036;-73
2024/01/28 07:16:35;;;;;;;36.55;34.65;;;;;;;4.33;65.33;102854.75;5072936;28;20472;-74
2024/01/28 07:19:01;;;;;;;36.55;34.78;;;;;;;4.32;65.00;102853.91;5073241;28;20090;-73
2024/01/28 07:21:26;;;;;;;39.10;37.20;;;;;;;4.31;64.78;102846.91;5068671;28;20083;-74
2024/01/28 07:23:52;;;;;;;37.35;35.55;;;;;;;4.30;65.30;102836.34;5071350;28;20024;-73
2024/01/28 07:26:17;;;;;;;36.65;34.88;;;;;;;4.29;65.12;102843.53;5068688;28;20532;-73
2024/01/28 07:28:43;;;;;;;41.20;39.10;;;;;;;4.30;64.92;102841.69;5067497;28;20037;-72
2024/01/28 07:31:09;;;;;;;35.85;34.15;;;;;;;4.28;65.16;102841.84;5064495;28;20036;-72
2024/01/28 07:33:34;;;;;;;36.25;34.40;;;;;;;4.28;65.06;102849.88;5069144;28;20104;-72
2024/01/28 07:36:00;;;;;;;37.95;35.95;;;;;;;4.28;64.95;102846.34;5071790;28;20124;-73
2024/01/28 07:38:26;;;;;;;30.55;29.05;;;;;;;4.27;64.79;102844.66;5072598;28;20024;-72
2024/01/28 07:40:51;;;;;;;34.60;32.90;;;;;;;4.25;65.15;102842.13;5066307;28;20451;-73
2024/01/28 07:43:17;;;;;;;38.38;36.47;;;;;;;4.26;64.71;102848.34;5064751;28;20032;-73
2024/01/28 07:45:42;;;;;;;35.60;33.70;;;;;;;4.25;64.98;102847.47;5072412;28;20079;-73
2024/01/28 07:48:08;;;;;;;35.67;33.85;;;;;;;4.25;65.08;102839.44;5071495;28;20040;-76
2024/01/28 07:50:33;;;;;;;32.88;31.25;;;;;;;4.25;64.83;102842.13;5072122;28;20036;-73
2024/01/28 07:52:59;;;;;;;38.63;36.72;;;;;;;4.23;65.05;102838.75;5070816;28;20512;-73
2024/01/28 07:55:24;;;;;;;34.97;33.25;;;;;;;4.23;64.97;102837.91;5071626;28;20035;-73
2024/01/28 07:57:50;;;;;;;42.00;39.70;;;;;;;4.22;64.93;102836.25;5070734;28;20028;-73
2024/01/28 08:00:16;;;;;;;36.22;34.40;;;;;;;4.22;64.80;102836.25;5065935;28;20379;-73
2024/01/28 08:02:41;;;;;;;37.78;35.65;;;;;;;4.21;64.96;102835.41;5069812;28;20044;-73
2024/01/28 08:05:07;;;;;;;36.03;34.33;;;;;;;4.21;64.83;102829.19;5072299;28;20111;-73
2024/01/28 08:07:32;;;;;;;36.00;34.30;;;;;;;4.20;64.96;102822.16;5071593;28;20036;-73
2024/01/28 08:09:58;;;;;;;34.33;32.53;;;;;;;4.20;65.20;102816.81;5069570;28;20499;-72
2024/01/28 08:12:23;;;;;;;40.78;38.67;;;;;;;4.19;64.96;102815.97;5071663;28;20076;-73
2024/01/28 08:14:49;;;;;;;36.00;34.10;;;;;;;4.19;64.95;102813.31;5071876;28;20033;-72
2024/01/28 08:17:14;;;;;;;36.92;35.03;;;;;;;4.19;65.08;102815.16;5069615;28;20032;-73
2024/01/28 08:19:40;;;;;;;35.55;33.78;;;;;;;4.18;65.06;102813.44;5072057;28;20138;-72
2024/01/28 08:22:05;;;;;;;39.53;37.42;;;;;;;4.17;65.25;102803.75;5070710;28;20074;-72
2024/01/28 08:24:31;;;;;;;37.42;35.17;;;;;;;4.17;64.99;102798.41;5067652;28;20045;-72
2024/01/28 08:26:58;;;;;;;35.67;33.83;;;;;;;4.17;64.91;102801.91;5064227;28;20228;-73
2024/01/28 08:29:24;;;;;;;39.30;37.45;;;;;;;4.17;65.05;102801.06;5071918;28;20062;-73
2024/01/28 08:31:49;;;;;;;35.90;33.95;;;;;;;4.16;65.06;102791.34;5070969;28;20041;-75
2024/01/28 08:34:14;;;;;;;36.65;34.65;;;;;;;4.15;64.88;102793.19;5062926;28;20467;-73
2024/01/28 08:36:40;;;;;;;37.85;36.00;;;;;;;4.16;64.91;102788.69;5071690;28;20028;-73
2024/01/28 08:39:05;;;;;;;35.20;33.13;;;;;;;4.15;64.97;102787.84;5067337;28;20477;-72
2024/01/28 08:41:31;;;;;;;38.75;36.88;;;;;;;4.14;64.78;102783.50;5065800;28;20067;-72
2024/01/28 08:43:57;;;;;;;36.83;34.92;;;;;;;4.13;65.05;102784.47;5069032;28;20025;-72
2024/01/28 08:46:22;;;;;;;37.70;35.85;;;;;;;4.12;64.79;102791.66;5071703;28;20115;-73
2024/01/28 08:48:48;;;;;;;39.17;37.17;;;;;;;4.13;65.25;102789.81;5070998;28;20069;-72
2024/01/28 08:51:13;;;;;;;36.42;34.63;;;;;;;4.12;64.90;102790.81;5071710;28;20033;-73
2024/01/28 08:53:38;;;;;;;38.97;36.83;;;;;;;4.10;64.89;102787.44;5070582;28;20472;-73
2024/01/28 08:56:04;;;;;;;35.78;33.67;;;;;;;4.11;64.92;102794.50;5071533;28;20031;-73
2024/01/28 08:58:30;;;;;;;31.80;30.27;;;;;;;4.10;65.04;102790.97;5063651;28;20465;-73
2024/01/28 09:00:56;;;;;;;38.15;35.95;;;;;;;4.10;64.74;102787.44;5066765;28;20392;-73
2024/01/28 09:03:21;;;;;;;33.50;31.63;;;;;;;4.09;65.11;102791.97;5062184;28;20560;-73
2024/01/28 09:05:47;;;;;;;36.67;34.67;;;;;;;4.10;64.98;102790.13;5057758;28;20032;-74
2024/01/28 09:08:13;;;;;;;36.85;35.08;;;;;;;4.11;65.16;102792.66;5071774;28;20029;-74
2024/01/28 09:10:38;;;;;;;38.13;36.20;;;;;;;4.10;65.06;102790.97;5070314;28;20390;-73
2024/01/28 09:13:04;;;;;;;35.20;33.50;;;;;;;4.10;64.96;102795.47;5059565;28;20060;-73
2024/01/28 09:15:29;;;;;;;34.65;32.95;;;;;;;4.10;64.72;102784.78;5058606;28;20024;-74
2024/01/28 09:17:55;;;;;;;34.05;32.25;;;;;;;4.09;65.05;102786.63;5071059;28;20535;-73
2024/01/28 09:20:20;;;;;;;36.25;34.45;;;;;;;4.08;64.86;102786.75;5059480;28;20077;-73
2024/01/28 09:22:46;;;;;;;33.85;32.05;;;;;;;4.08;65.25;102784.94;5070822;28;20503;-74
2024/01/28 09:25:11;;;;;;;34.30;32.40;;;;;;;4.07;64.86;102772.53;5070513;28;20040;-74
2024/01/28 09:27:37;;;;;;;36.03;33.88;;;;;;;4.07;64.85;102769.88;5065553;28;20119;-73
2024/01/28 09:30:02;;;;;;;36.33;34.33;;;;;;;4.07;65.03;102771.72;5057237;28;20039;-72
2024/01/28 09:32:28;;;;;;;29.80;28.30;;;;;;;4.07;64.96;102772.53;5071917;28;20050;-74
2024/01/28 09:34:53;;;;;;;35.95;34.10;;;;;;;4.06;64.86;102767.38;5057154;28;20033;-73
2024/01/28 09:37:19;;;;;;;36.38;34.47;;;;;;;4.06;65.05;102765.53;5063961;28;20450;-73
2024/01/28 09:39:45;;;;;;;38.00;36.05;;;;;;;4.07;64.72;102763.69;5071425;28;20493;-73
2024/01/28 09:42:20;;;;;;;37.38;35.47;;;;;;;4.06;64.93;102765.53;5066731;28;20037;-74
2024/01/28 09:44:47;;;;;;;35.70;33.97;;;;;;;4.06;64.94;102767.38;5063594;28;20035;-73
2024/01/28 09:47:12;;;;;;;35.28;33.45;;;;;;;4.05;64.88;102768.34;5051331;28;20139;-73
2024/01/28 09:49:39;;;;;;;38.65;36.58;;;;;;;4.03;64.70;102760.47;5070631;28;20503;-73
2024/01/28 09:52:12;;;;;;;41.05;38.15;;;;;;;4.03;64.63;102762.28;5070814;28;20017;-73
2024/01/28 09:54:39;;;;;;;37.80;35.22;;;;;;;4.01;64.40;102753.59;5069207;28;20036;-74
2024/01/28 09:57:06;;;;;;;38.53;36.22;;;;;;;3.98;64.85;102751.19;5059092;28;20033;-73
2024/01/28 09:59:35;;;;;;;37.08;34.00;;;;;;;3.96;64.76;102750.53;5068818;28;20032;-73
2024/01/28 10:02:03;;;;;;;34.38;32.50;;;;;;;3.96;65.14;102745.19;5070827;28;20024;-73
2024/01/28 10:04:29;;;;;;;35.53;33.78;;;;;;;3.97;64.95;102747.69;5059780;28;20059;-73
2024/01/28 10:06:59;;;;;;;35.22;33.33;;;;;;;3.97;65.17;102741.50;5067788;28;20024;-73
2024/01/28 10:09:26;;;;;;;36.95;34.92;;;;;;;3.97;64.89;102737.00;5068758;28;20425;-75
2024/01/28 10:11:52;;;;;;;36.15;34.28;;;;;;;3.98;64.70;102748.53;5071029;28;20128;-73
2024/01/28 10:14:18;;;;;;;38.58;36.28;;;;;;;3.99;65.07;102731.50;5055373;28;20146;-72
2024/01/28 10:16:47;;;;;;;32.83;30.92;;;;;;;3.99;65.21;102739.53;5059822;28;20047;-73
2024/01/28 10:19:13;;;;;;;39.03;36.97;;;;;;;3.99;65.05;102739.53;5073677;28;20036;-75
2024/01/28 10:21:38;;;;;;;34.53;32.58;;;;;;;3.99;65.03;102740.38;5073470;28;20086;-72
2024/01/28 10:24:04;;;;;;;38.55;36.50;;;;;;;3.99;65.24;102740.38;5071427;28;20432;-72
2024/01/28 10:26:30;;;;;;;40.58;38.53;;;;;;;4.00;65.06;102741.19;5074648;28;20499;-73
2024/01/28 10:28:55;;;;;;;38.90;36.40;;;;;;;4.01;65.00;102748.25;5072236;28;20040;-73
2024/01/28 10:31:23;;;;;;;40.17;37.35;;;;;;;4.01;64.71;102743.75;5063938;28;20033;-84
2024/01/28 10:33:49;;;;;;;33.53;31.63;;;;;;;4.00;65.01;102736.69;5072957;28;20036;-74
2024/01/28 10:36:16;;;;;;;33.70;31.90;;;;;;;4.00;64.99;102736.69;5059968;28;20036;-74
2024/01/28 10:38:45;;;;;;;35.67;33.67;;;;;;;4.01;64.96;102741.06;5072084;28;20048;-74
2024/01/28 10:41:15;;;;;;;35.47;33.63;;;;;;;4.00;65.13;102726.00;5072165;28;20432;-74
2024/01/28 10:43:51;;;;;;;36.35;33.40;;;;;;;4.01;65.24;102726.84;5068308;28;20096;-74
2024/01/28 10:46:23;;;;;;;37.85;35.85;;;;;;;4.02;65.07;102717.84;5068297;28;20033;-74
2024/01/28 10:48:53;;;;;;;32.17;30.58;;;;;;;4.02;65.14;102712.47;5074031;28;20024;-74
2024/01/28 10:51:20;;;;;;;34.45;32.50;;;;;;;4.03;65.40;102714.16;5073869;28;20112;-74
2024/01/28 10:53:46;;;;;;;39.92;37.83;;;;;;;4.05;65.41;102709.50;5074009;28;20028;-75
2024/01/28 10:56:12;;;;;;;36.30;34.25;;;;;;;4.06;65.40;102712.03;5071296;28;20033;-74
2024/01/28 10:58:39;;;;;;;38.38;36.28;;;;;;;4.07;65.45;102707.53;5073226;28;20388;-75
2024/01/28 11:01:07;;;;;;;39.92;37.00;;;;;;;4.08;65.56;102712.72;5060273;28;20445;-75
2024/01/28 11:03:33;;;;;;;35.00;33.22;;;;;;;4.11;65.69;102700.91;5073245;28;20024;-74
2024/01/28 11:05:59;;;;;;;38.13;36.15;;;;;;;4.13;65.57;102706.91;5070683;28;20075;-73
2024/01/28 11:08:26;;;;;;;37.60;34.83;;;;;;;4.15;65.50;102698.75;5073339;28;20469;-75
2024/01/28 11:10:52;;;;;;;40.42;38.22;;;;;;;4.17;65.78;102700.28;5073499;28;20348;-74